Etusivu
METAR-TAF:

METAR-TAF

Lentoasemat :

Porin lentoasema

Pori, Suomi

Leveyspiiri: 61-28N, Pituuspiiri: 021-48E, korkeus merenpinnasta: 13 m

Tämänhetkinen sää

Tämä raportti tehtiin 12 minuuttia sitten, kello 22.50 UTC
Tuuli 1 kn etelästä/kaakosta
Lämpötila 9°C
Kosteus 61%
Ilmanpaine 1029 hPa
Näkyvyys 10 km tai enemmän
ei pilviä alle 1500 m:ssä eikä cumulonimbus-pilviä

METAR: EFPO 242250Z AUTO 15001KT CAVOK 09/02 Q1029

Aika: 02:02 (23:02 UTC)

Sääennuste

Tämä raportti tehtiin 8 tuntia ja 35 minuuttia sitten, kello 14.27 UTC
Ennuste voimassa 24. päivästä klo 15 UTC - 24. päivään klo 22 UTC
Tuuli 12 kn luoteesta
Näkyvyys 10 km tai enemmän
ei pilviä alle 1500 m:ssä eikä cumulonimbus-pilviä
Tulossa
24. päivästä klo 17 UTC - 24. päivään klo 19 UTC
Tuuli 2 kn luoteesta

TAF: EFPO 241427Z 2415/2422 32012KT CAVOK BECMG 2417/2419 32002KT

Säähavainnot ja -ennusteet yli 4000 lentoasemalta (METAR- ja TAF-raportit).

Käytössä olevat sääasemat on merkitty karttaan keltaisilla ja punaisilla pisteillä.

Aseta hiiri pisteen päälle nähdäksesi sääaseman nimen.

Klikkaa sitten nähdäksesi säähavainnot ja -ennusteet.

Kartan vaihtaminen: klikkaa mustalla rastilla varustettuja vihreitä pisteitä, niin voit zoomata sisään; viivalla varustettua vihreää pistettä, niin voit zoomata ulos tai vihreitä nuolia, niin pääset viereisille kartoille.


METAR-TAF: